sensor_id;sensor_type;location;lat;lon;timestamp;P1;durP1;ratioP1;P2;durP2;ratioP2
16593;SDS011;8410;52.532;13.336;2023-03-13T00:02:01;15.40;;;9.90;;
16593;SDS011;8410;52.532;13.336;2023-03-13T00:04:29;15.17;;;11.23;;
16593;SDS011;8410;52.532;13.336;2023-03-13T00:06:56;18.53;;;10.50;;
16593;SDS011;8410;52.532;13.336;2023-03-13T00:09:26;14.27;;;8.23;;
16593;SDS011;8410;52.532;13.336;2023-03-13T00:11:53;16.97;;;9.47;;
16593;SDS011;8410;52.532;13.336;2023-03-13T00:14:20;14.80;;;8.67;;
16593;SDS011;8410;52.532;13.336;2023-03-13T00:16:48;17.50;;;10.10;;
16593;SDS011;8410;52.532;13.336;2023-03-13T00:19:15;18.00;;;10.33;;
16593;SDS011;8410;52.532;13.336;2023-03-13T00:21:43;15.63;;;9.00;;
16593;SDS011;8410;52.532;13.336;2023-03-13T00:24:10;13.40;;;8.17;;
16593;SDS011;8410;52.532;13.336;2023-03-13T00:26:39;14.63;;;8.50;;
16593;SDS011;8410;52.532;13.336;2023-03-13T00:29:07;13.37;;;7.97;;
16593;SDS011;8410;52.532;13.336;2023-03-13T00:31:34;17.23;;;10.83;;
16593;SDS011;8410;52.532;13.336;2023-03-13T00:34:02;22.77;;;9.33;;
16593;SDS011;8410;52.532;13.336;2023-03-13T00:36:31;13.43;;;8.37;;
16593;SDS011;8410;52.532;13.336;2023-03-13T00:39:00;16.23;;;9.03;;
16593;SDS011;8410;52.532;13.336;2023-03-13T00:41:28;15.57;;;9.77;;
16593;SDS011;8410;52.532;13.336;2023-03-13T00:43:58;16.03;;;10.37;;
16593;SDS011;8410;52.532;13.336;2023-03-13T00:46:27;18.03;;;10.10;;
16593;SDS011;8410;52.532;13.336;2023-03-13T00:48:55;15.93;;;8.43;;
16593;SDS011;8410;52.532;13.336;2023-03-13T00:51:23;14.23;;;9.40;;
16593;SDS011;8410;52.532;13.336;2023-03-13T00:53:52;17.50;;;11.27;;
16593;SDS011;8410;52.532;13.336;2023-03-13T00:56:20;19.60;;;10.20;;
16593;SDS011;8410;52.532;13.336;2023-03-13T00:58:48;16.03;;;9.20;;
16593;SDS011;8410;52.532;13.336;2023-03-13T01:01:18;17.53;;;9.47;;
16593;SDS011;8410;52.532;13.336;2023-03-13T01:03:48;18.33;;;9.43;;
16593;SDS011;8410;52.532;13.336;2023-03-13T01:06:18;13.87;;;9.60;;
16593;SDS011;8410;52.532;13.336;2023-03-13T01:08:47;20.97;;;10.53;;
16593;SDS011;8410;52.532;13.336;2023-03-13T01:11:16;15.87;;;8.93;;
16593;SDS011;8410;52.532;13.336;2023-03-13T01:13:45;16.60;;;9.77;;
16593;SDS011;8410;52.532;13.336;2023-03-13T01:16:14;19.77;;;10.17;;
16593;SDS011;8410;52.532;13.336;2023-03-13T01:18:45;16.47;;;9.70;;
16593;SDS011;8410;52.532;13.336;2023-03-13T01:21:14;16.13;;;10.23;;
16593;SDS011;8410;52.532;13.336;2023-03-13T01:23:44;17.60;;;9.20;;
16593;SDS011;8410;52.532;13.336;2023-03-13T01:26:12;18.17;;;9.80;;
16593;SDS011;8410;52.532;13.336;2023-03-13T01:28:39;16.50;;;8.33;;
16593;SDS011;8410;52.532;13.336;2023-03-13T01:31:10;14.70;;;9.17;;
16593;SDS011;8410;52.532;13.336;2023-03-13T01:33:39;15.23;;;9.60;;
16593;SDS011;8410;52.532;13.336;2023-03-13T01:36:08;13.63;;;9.27;;
16593;SDS011;8410;52.532;13.336;2023-03-13T01:38:36;14.20;;;8.90;;
16593;SDS011;8410;52.532;13.336;2023-03-13T01:41:05;18.43;;;9.80;;
16593;SDS011;8410;52.532;13.336;2023-03-13T01:43:34;11.80;;;8.70;;
16593;SDS011;8410;52.532;13.336;2023-03-13T01:46:04;17.00;;;9.17;;
16593;SDS011;8410;52.532;13.336;2023-03-13T01:48:42;12.43;;;8.77;;
16593;SDS011;8410;52.532;13.336;2023-03-13T01:51:17;12.43;;;8.30;;
16593;SDS011;8410;52.532;13.336;2023-03-13T01:53:49;13.33;;;8.50;;
16593;SDS011;8410;52.532;13.336;2023-03-13T01:56:21;15.20;;;8.37;;
16593;SDS011;8410;52.532;13.336;2023-03-13T01:58:53;14.10;;;8.33;;
16593;SDS011;8410;52.532;13.336;2023-03-13T02:01:23;13.13;;;8.50;;
16593;SDS011;8410;52.532;13.336;2023-03-13T02:03:51;13.37;;;8.20;;
16593;SDS011;8410;52.532;13.336;2023-03-13T02:06:20;13.03;;;9.30;;
16593;SDS011;8410;52.532;13.336;2023-03-13T02:08:49;12.83;;;7.77;;
16593;SDS011;8410;52.532;13.336;2023-03-13T02:11:22;15.40;;;8.87;;
16593;SDS011;8410;52.532;13.336;2023-03-13T02:13:54;15.00;;;8.07;;
16593;SDS011;8410;52.532;13.336;2023-03-13T02:16:24;17.30;;;8.83;;
16593;SDS011;8410;52.532;13.336;2023-03-13T02:18:53;15.80;;;9.10;;
16593;SDS011;8410;52.532;13.336;2023-03-13T02:21:31;18.57;;;8.47;;
16593;SDS011;8410;52.532;13.336;2023-03-13T02:24:08;13.47;;;8.23;;
16593;SDS011;8410;52.532;13.336;2023-03-13T02:26:47;18.97;;;8.30;;
16593;SDS011;8410;52.532;13.336;2023-03-13T02:29:14;12.17;;;7.53;;
16593;SDS011;8410;52.532;13.336;2023-03-13T02:31:44;11.07;;;7.43;;
16593;SDS011;8410;52.532;13.336;2023-03-13T02:34:13;13.73;;;7.77;;
16593;SDS011;8410;52.532;13.336;2023-03-13T02:36:43;15.33;;;8.03;;
16593;SDS011;8410;52.532;13.336;2023-03-13T02:39:14;15.63;;;8.13;;
16593;SDS011;8410;52.532;13.336;2023-03-13T02:41:44;13.60;;;7.50;;
16593;SDS011;8410;52.532;13.336;2023-03-13T02:44:14;16.57;;;8.17;;
16593;SDS011;8410;52.532;13.336;2023-03-13T02:46:45;11.23;;;6.87;;
16593;SDS011;8410;52.532;13.336;2023-03-13T02:49:19;13.03;;;6.23;;
16593;SDS011;8410;52.532;13.336;2023-03-13T02:51:49;11.80;;;6.37;;
16593;SDS011;8410;52.532;13.336;2023-03-13T02:54:20;14.67;;;7.30;;
16593;SDS011;8410;52.532;13.336;2023-03-13T02:56:52;14.23;;;6.70;;
16593;SDS011;8410;52.532;13.336;2023-03-13T02:59:23;14.43;;;6.80;;
16593;SDS011;8410;52.532;13.336;2023-03-13T03:01:51;14.63;;;6.77;;
16593;SDS011;8410;52.532;13.336;2023-03-13T03:04:19;15.57;;;6.30;;
16593;SDS011;8410;52.532;13.336;2023-03-13T03:06:47;12.57;;;6.60;;
16593;SDS011;8410;52.532;13.336;2023-03-13T03:09:15;14.03;;;6.13;;
16593;SDS011;8410;52.532;13.336;2023-03-13T03:11:44;16.60;;;6.60;;
16593;SDS011;8410;52.532;13.336;2023-03-13T03:14:13;11.73;;;6.20;;
16593;SDS011;8410;52.532;13.336;2023-03-13T03:16:41;12.07;;;5.07;;
16593;SDS011;8410;52.532;13.336;2023-03-13T03:19:08;14.43;;;6.07;;
16593;SDS011;8410;52.532;13.336;2023-03-13T03:21:36;12.07;;;5.37;;
16593;SDS011;8410;52.532;13.336;2023-03-13T03:24:04;16.30;;;5.53;;
16593;SDS011;8410;52.532;13.336;2023-03-13T03:26:32;14.30;;;6.20;;
16593;SDS011;8410;52.532;13.336;2023-03-13T03:29:00;14.10;;;6.60;;
16593;SDS011;8410;52.532;13.336;2023-03-13T03:31:29;11.10;;;5.67;;
16593;SDS011;8410;52.532;13.336;2023-03-13T03:33:57;17.67;;;6.83;;
16593;SDS011;8410;52.532;13.336;2023-03-13T03:36:27;15.23;;;5.70;;
16593;SDS011;8410;52.532;13.336;2023-03-13T03:38:55;15.93;;;5.80;;
16593;SDS011;8410;52.532;13.336;2023-03-13T03:41:22;14.60;;;6.10;;
16593;SDS011;8410;52.532;13.336;2023-03-13T03:43:50;18.97;;;8.03;;
16593;SDS011;8410;52.532;13.336;2023-03-13T03:46:17;24.80;;;15.37;;
16593;SDS011;8410;52.532;13.336;2023-03-13T03:48:46;24.03;;;11.13;;
16593;SDS011;8410;52.532;13.336;2023-03-13T03:51:14;30.60;;;17.33;;
16593;SDS011;8410;52.532;13.336;2023-03-13T03:53:41;18.00;;;6.90;;
16593;SDS011;8410;52.532;13.336;2023-03-13T03:56:08;12.20;;;6.03;;
16593;SDS011;8410;52.532;13.336;2023-03-13T03:58:36;16.30;;;5.63;;
16593;SDS011;8410;52.532;13.336;2023-03-13T04:01:03;14.60;;;5.37;;
16593;SDS011;8410;52.532;13.336;2023-03-13T04:03:31;15.27;;;5.70;;
16593;SDS011;8410;52.532;13.336;2023-03-13T04:06:00;14.00;;;6.20;;
16593;SDS011;8410;52.532;13.336;2023-03-13T04:08:28;16.50;;;5.77;;
16593;SDS011;8410;52.532;13.336;2023-03-13T04:10:55;16.07;;;5.63;;
16593;SDS011;8410;52.532;13.336;2023-03-13T04:13:22;17.90;;;5.30;;
16593;SDS011;8410;52.532;13.336;2023-03-13T04:15:50;17.93;;;6.03;;
16593;SDS011;8410;52.532;13.336;2023-03-13T04:18:17;20.27;;;6.57;;
16593;SDS011;8410;52.532;13.336;2023-03-13T04:20:45;19.93;;;6.03;;
16593;SDS011;8410;52.532;13.336;2023-03-13T04:23:14;16.60;;;6.10;;
16593;SDS011;8410;52.532;13.336;2023-03-13T04:25:42;14.07;;;5.33;;
16593;SDS011;8410;52.532;13.336;2023-03-13T04:28:09;17.30;;;6.30;;
16593;SDS011;8410;52.532;13.336;2023-03-13T04:30:36;20.10;;;5.60;;
16593;SDS011;8410;52.532;13.336;2023-03-13T04:33:04;14.27;;;4.63;;
16593;SDS011;8410;52.532;13.336;2023-03-13T04:35:31;15.00;;;4.67;;
16593;SDS011;8410;52.532;13.336;2023-03-13T04:37:59;14.80;;;5.43;;
16593;SDS011;8410;52.532;13.336;2023-03-13T04:40:29;19.43;;;5.87;;
16593;SDS011;8410;52.532;13.336;2023-03-13T04:42:56;18.37;;;5.77;;
16593;SDS011;8410;52.532;13.336;2023-03-13T04:45:24;17.33;;;5.03;;
16593;SDS011;8410;52.532;13.336;2023-03-13T04:47:51;18.07;;;5.43;;
16593;SDS011;8410;52.532;13.336;2023-03-13T04:50:18;15.47;;;5.47;;
16593;SDS011;8410;52.532;13.336;2023-03-13T04:52:46;15.00;;;5.20;;
16593;SDS011;8410;52.532;13.336;2023-03-13T04:55:15;15.43;;;4.83;;
16593;SDS011;8410;52.532;13.336;2023-03-13T04:57:43;17.70;;;6.37;;
16593;SDS011;8410;52.532;13.336;2023-03-13T05:00:11;19.37;;;5.13;;
16593;SDS011;8410;52.532;13.336;2023-03-13T05:02:39;19.80;;;5.33;;
16593;SDS011;8410;52.532;13.336;2023-03-13T05:05:07;14.53;;;4.83;;
16593;SDS011;8410;52.532;13.336;2023-03-13T05:07:34;17.70;;;4.90;;
16593;SDS011;8410;52.532;13.336;2023-03-13T05:10:02;18.33;;;5.27;;
16593;SDS011;8410;52.532;13.336;2023-03-13T05:12:30;16.87;;;5.80;;
16593;SDS011;8410;52.532;13.336;2023-03-13T05:14:59;16.03;;;5.13;;
16593;SDS011;8410;52.532;13.336;2023-03-13T05:17:26;21.37;;;5.43;;
16593;SDS011;8410;52.532;13.336;2023-03-13T05:19:54;14.03;;;4.80;;
16593;SDS011;8410;52.532;13.336;2023-03-13T05:22:21;17.93;;;5.10;;
16593;SDS011;8410;52.532;13.336;2023-03-13T05:24:49;15.80;;;4.80;;
16593;SDS011;8410;52.532;13.336;2023-03-13T05:27:16;15.20;;;4.37;;
16593;SDS011;8410;52.532;13.336;2023-03-13T05:29:43;16.07;;;4.60;;
16593;SDS011;8410;52.532;13.336;2023-03-13T05:32:12;15.87;;;5.07;;
16593;SDS011;8410;52.532;13.336;2023-03-13T05:34:40;19.70;;;4.90;;
16593;SDS011;8410;52.532;13.336;2023-03-13T05:37:07;18.27;;;4.67;;
16593;SDS011;8410;52.532;13.336;2023-03-13T05:39:35;18.20;;;5.20;;
16593;SDS011;8410;52.532;13.336;2023-03-13T05:42:02;15.87;;;5.23;;
16593;SDS011;8410;52.532;13.336;2023-03-13T05:44:30;12.20;;;4.80;;
16593;SDS011;8410;52.532;13.336;2023-03-13T05:46:57;16.60;;;4.77;;
16593;SDS011;8410;52.532;13.336;2023-03-13T05:49:26;16.23;;;4.60;;
16593;SDS011;8410;52.532;13.336;2023-03-13T05:51:53;16.67;;;5.07;;
16593;SDS011;8410;52.532;13.336;2023-03-13T05:54:21;20.27;;;5.43;;
16593;SDS011;8410;52.532;13.336;2023-03-13T05:56:48;16.93;;;5.43;;
16593;SDS011;8410;52.532;13.336;2023-03-13T05:59:17;20.23;;;4.80;;
16593;SDS011;8410;52.532;13.336;2023-03-13T06:01:44;13.33;;;4.87;;
16593;SDS011;8410;52.532;13.336;2023-03-13T06:04:12;16.63;;;5.63;;
16593;SDS011;8410;52.532;13.336;2023-03-13T06:06:41;13.30;;;5.10;;
16593;SDS011;8410;52.532;13.336;2023-03-13T06:09:08;23.33;;;6.07;;
16593;SDS011;8410;52.532;13.336;2023-03-13T06:11:37;16.67;;;5.60;;
16593;SDS011;8410;52.532;13.336;2023-03-13T06:14:04;20.70;;;5.80;;
16593;SDS011;8410;52.532;13.336;2023-03-13T06:16:32;19.90;;;5.70;;
16593;SDS011;8410;52.532;13.336;2023-03-13T06:19:00;19.17;;;5.87;;
16593;SDS011;8410;52.532;13.336;2023-03-13T06:21:28;14.00;;;5.40;;
16593;SDS011;8410;52.532;13.336;2023-03-13T06:23:57;16.47;;;4.77;;
16593;SDS011;8410;52.532;13.336;2023-03-13T06:26:24;20.40;;;4.83;;
16593;SDS011;8410;52.532;13.336;2023-03-13T06:28:52;15.03;;;5.00;;
16593;SDS011;8410;52.532;13.336;2023-03-13T06:31:19;19.97;;;5.63;;
16593;SDS011;8410;52.532;13.336;2023-03-13T06:33:47;16.77;;;4.70;;
16593;SDS011;8410;52.532;13.336;2023-03-13T06:36:18;19.33;;;6.00;;
16593;SDS011;8410;52.532;13.336;2023-03-13T06:38:46;18.33;;;5.60;;
16593;SDS011;8410;52.532;13.336;2023-03-13T06:41:14;23.20;;;5.70;;
16593;SDS011;8410;52.532;13.336;2023-03-13T06:43:43;17.80;;;6.30;;
16593;SDS011;8410;52.532;13.336;2023-03-13T06:46:13;21.07;;;6.37;;
16593;SDS011;8410;52.532;13.336;2023-03-13T06:48:43;18.03;;;5.33;;
16593;SDS011;8410;52.532;13.336;2023-03-13T06:51:12;18.27;;;5.60;;
16593;SDS011;8410;52.532;13.336;2023-03-13T06:53:40;21.13;;;6.77;;
16593;SDS011;8410;52.532;13.336;2023-03-13T06:56:08;19.87;;;6.30;;
16593;SDS011;8410;52.532;13.336;2023-03-13T06:58:38;15.23;;;5.17;;
16593;SDS011;8410;52.532;13.336;2023-03-13T07:01:07;15.70;;;5.37;;
16593;SDS011;8410;52.532;13.336;2023-03-13T07:03:35;19.87;;;6.37;;
16593;SDS011;8410;52.532;13.336;2023-03-13T07:06:04;21.10;;;5.60;;
16593;SDS011;8410;52.532;13.336;2023-03-13T07:08:32;23.97;;;5.93;;
16593;SDS011;8410;52.532;13.336;2023-03-13T07:11:01;19.03;;;5.47;;
16593;SDS011;8410;52.532;13.336;2023-03-13T07:13:30;15.77;;;5.73;;
16593;SDS011;8410;52.532;13.336;2023-03-13T07:15:59;16.63;;;5.47;;
16593;SDS011;8410;52.532;13.336;2023-03-13T07:18:29;20.70;;;5.47;;
16593;SDS011;8410;52.532;13.336;2023-03-13T07:20:58;15.27;;;5.00;;
16593;SDS011;8410;52.532;13.336;2023-03-13T07:23:27;17.20;;;5.97;;
16593;SDS011;8410;52.532;13.336;2023-03-13T07:25:56;15.87;;;5.13;;
16593;SDS011;8410;52.532;13.336;2023-03-13T07:28:25;16.67;;;5.17;;
16593;SDS011;8410;52.532;13.336;2023-03-13T07:30:53;20.13;;;5.43;;
16593;SDS011;8410;52.532;13.336;2023-03-13T07:33:22;21.47;;;6.20;;
16593;SDS011;8410;52.532;13.336;2023-03-13T07:35:50;22.93;;;6.33;;
16593;SDS011;8410;52.532;13.336;2023-03-13T07:38:18;25.43;;;6.13;;
16593;SDS011;8410;52.532;13.336;2023-03-13T07:40:47;15.27;;;4.90;;
16593;SDS011;8410;52.532;13.336;2023-03-13T07:43:15;19.37;;;5.63;;
16593;SDS011;8410;52.532;13.336;2023-03-13T07:45:53;15.23;;;4.50;;
16593;SDS011;8410;52.532;13.336;2023-03-13T07:48:23;13.93;;;4.90;;
16593;SDS011;8410;52.532;13.336;2023-03-13T07:50:52;18.97;;;5.23;;
16593;SDS011;8410;52.532;13.336;2023-03-13T07:53:20;19.33;;;5.37;;
16593;SDS011;8410;52.532;13.336;2023-03-13T07:55:54;15.90;;;4.90;;
16593;SDS011;8410;52.532;13.336;2023-03-13T07:58:23;15.30;;;4.60;;
16593;SDS011;8410;52.532;13.336;2023-03-13T08:00:52;19.93;;;6.70;;
16593;SDS011;8410;52.532;13.336;2023-03-13T08:03:20;18.37;;;5.83;;
16593;SDS011;8410;52.532;13.336;2023-03-13T08:05:57;16.97;;;4.57;;
16593;SDS011;8410;52.532;13.336;2023-03-13T08:08:25;16.07;;;4.90;;
16593;SDS011;8410;52.532;13.336;2023-03-13T08:10:58;17.70;;;4.53;;
16593;SDS011;8410;52.532;13.336;2023-03-13T08:13:26;16.43;;;4.63;;
16593;SDS011;8410;52.532;13.336;2023-03-13T08:16:00;14.40;;;4.63;;
16593;SDS011;8410;52.532;13.336;2023-03-13T08:18:29;17.57;;;5.40;;
16593;SDS011;8410;52.532;13.336;2023-03-13T08:21:01;20.50;;;5.13;;
16593;SDS011;8410;52.532;13.336;2023-03-13T08:23:30;15.57;;;4.70;;
16593;SDS011;8410;52.532;13.336;2023-03-13T08:26:00;12.70;;;4.57;;
16593;SDS011;8410;52.532;13.336;2023-03-13T08:28:28;14.80;;;5.00;;
16593;SDS011;8410;52.532;13.336;2023-03-13T08:30:56;17.00;;;4.90;;
16593;SDS011;8410;52.532;13.336;2023-03-13T08:33:23;16.93;;;4.90;;
16593;SDS011;8410;52.532;13.336;2023-03-13T08:35:51;16.70;;;4.37;;
16593;SDS011;8410;52.532;13.336;2023-03-13T08:38:20;14.47;;;4.57;;
16593;SDS011;8410;52.532;13.336;2023-03-13T08:40:47;12.93;;;4.57;;
16593;SDS011;8410;52.532;13.336;2023-03-13T08:43:16;16.43;;;4.40;;
16593;SDS011;8410;52.532;13.336;2023-03-13T08:45:43;17.57;;;4.20;;
16593;SDS011;8410;52.532;13.336;2023-03-13T08:48:11;13.13;;;3.93;;
16593;SDS011;8410;52.532;13.336;2023-03-13T08:50:38;10.47;;;4.27;;
16593;SDS011;8410;52.532;13.336;2023-03-13T08:53:06;12.47;;;4.40;;
16593;SDS011;8410;52.532;13.336;2023-03-13T08:55:34;13.07;;;4.20;;
16593;SDS011;8410;52.532;13.336;2023-03-13T08:58:02;10.87;;;3.87;;
16593;SDS011;8410;52.532;13.336;2023-03-13T09:00:29;11.53;;;4.00;;
16593;SDS011;8410;52.532;13.336;2023-03-13T09:02:58;8.83;;;3.80;;
16593;SDS011;8410;52.532;13.336;2023-03-13T09:05:25;13.00;;;4.70;;
16593;SDS011;8410;52.532;13.336;2023-03-13T09:07:53;12.00;;;5.27;;
16593;SDS011;8410;52.532;13.336;2023-03-13T09:10:20;12.77;;;4.47;;
16593;SDS011;8410;52.532;13.336;2023-03-13T09:12:50;13.63;;;4.37;;
16593;SDS011;8410;52.532;13.336;2023-03-13T09:15:17;14.27;;;4.57;;
16593;SDS011;8410;52.532;13.336;2023-03-13T09:17:45;13.37;;;4.60;;
16593;SDS011;8410;52.532;13.336;2023-03-13T09:20:12;12.60;;;4.57;;
16593;SDS011;8410;52.532;13.336;2023-03-13T09:22:40;11.57;;;4.20;;
16593;SDS011;8410;52.532;13.336;2023-03-13T09:25:08;13.67;;;4.43;;
16593;SDS011;8410;52.532;13.336;2023-03-13T09:27:35;12.80;;;3.97;;
16593;SDS011;8410;52.532;13.336;2023-03-13T09:30:05;10.67;;;3.73;;
16593;SDS011;8410;52.532;13.336;2023-03-13T09:32:33;9.47;;;3.63;;
16593;SDS011;8410;52.532;13.336;2023-03-13T09:35:01;10.83;;;3.40;;
16593;SDS011;8410;52.532;13.336;2023-03-13T09:37:28;11.40;;;4.20;;
16593;SDS011;8410;52.532;13.336;2023-03-13T09:39:56;14.23;;;3.87;;
16593;SDS011;8410;52.532;13.336;2023-03-13T09:42:27;14.00;;;3.63;;
16593;SDS011;8410;52.532;13.336;2023-03-13T09:45:02;12.63;;;10.33;;
16593;SDS011;8410;52.532;13.336;2023-03-13T09:47:36;9.57;;;6.80;;
16593;SDS011;8410;52.532;13.336;2023-03-13T09:50:10;12.20;;;8.40;;
16593;SDS011;8410;52.532;13.336;2023-03-13T09:52:40;12.73;;;5.00;;
16593;SDS011;8410;52.532;13.336;2023-03-13T09:55:11;8.63;;;5.93;;
16593;SDS011;8410;52.532;13.336;2023-03-13T09:57:47;7.77;;;6.17;;
16593;SDS011;8410;52.532;13.336;2023-03-13T10:00:23;9.37;;;4.20;;
16593;SDS011;8410;52.532;13.336;2023-03-13T10:02:54;7.87;;;3.10;;
16593;SDS011;8410;52.532;13.336;2023-03-13T10:05:24;9.67;;;3.10;;
16593;SDS011;8410;52.532;13.336;2023-03-13T10:07:55;10.37;;;3.70;;
16593;SDS011;8410;52.532;13.336;2023-03-13T10:10:26;10.40;;;3.23;;
16593;SDS011;8410;52.532;13.336;2023-03-13T10:13:02;13.27;;;4.00;;
16593;SDS011;8410;52.532;13.336;2023-03-13T10:15:41;8.20;;;2.67;;
16593;SDS011;8410;52.532;13.336;2023-03-13T10:18:15;8.33;;;3.13;;
16593;SDS011;8410;52.532;13.336;2023-03-13T10:20:45;9.87;;;3.50;;
16593;SDS011;8410;52.532;13.336;2023-03-13T10:23:15;12.43;;;4.23;;
16593;SDS011;8410;52.532;13.336;2023-03-13T10:25:46;8.03;;;3.10;;
16593;SDS011;8410;52.532;13.336;2023-03-13T10:28:14;6.87;;;2.90;;
16593;SDS011;8410;52.532;13.336;2023-03-13T10:30:47;8.97;;;3.87;;
16593;SDS011;8410;52.532;13.336;2023-03-13T10:33:18;7.23;;;2.83;;
16593;SDS011;8410;52.532;13.336;2023-03-13T10:35:58;6.50;;;2.73;;
16593;SDS011;8410;52.532;13.336;2023-03-13T10:38:28;5.37;;;2.93;;
16593;SDS011;8410;52.532;13.336;2023-03-13T10:41:00;9.17;;;2.93;;
16593;SDS011;8410;52.532;13.336;2023-03-13T10:43:31;6.87;;;3.00;;
16593;SDS011;8410;52.532;13.336;2023-03-13T10:46:00;7.77;;;2.80;;
16593;SDS011;8410;52.532;13.336;2023-03-13T10:48:29;8.67;;;3.40;;
16593;SDS011;8410;52.532;13.336;2023-03-13T10:51:02;5.67;;;2.67;;
16593;SDS011;8410;52.532;13.336;2023-03-13T10:53:32;9.13;;;2.93;;
16593;SDS011;8410;52.532;13.336;2023-03-13T10:56:07;7.87;;;2.80;;
16593;SDS011;8410;52.532;13.336;2023-03-13T10:58:39;5.73;;;2.70;;
16593;SDS011;8410;52.532;13.336;2023-03-13T11:01:13;6.77;;;2.50;;
16593;SDS011;8410;52.532;13.336;2023-03-13T11:03:43;5.60;;;2.60;;
16593;SDS011;8410;52.532;13.336;2023-03-13T11:06:22;5.67;;;2.57;;
16593;SDS011;8410;52.532;13.336;2023-03-13T11:08:57;3.37;;;2.23;;
16593;SDS011;8410;52.532;13.336;2023-03-13T11:11:26;4.33;;;2.23;;
16593;SDS011;8410;52.532;13.336;2023-03-13T11:14:06;3.63;;;2.00;;
16593;SDS011;8410;52.532;13.336;2023-03-13T11:16:38;5.23;;;2.73;;
16593;SDS011;8410;52.532;13.336;2023-03-13T11:19:18;4.17;;;2.30;;
16593;SDS011;8410;52.532;13.336;2023-03-13T11:22:20;5.07;;;2.53;;
16593;SDS011;8410;52.532;13.336;2023-03-13T11:24:58;4.33;;;2.40;;
16593;SDS011;8410;52.532;13.336;2023-03-13T11:27:37;4.47;;;2.97;;
16593;SDS011;8410;52.532;13.336;2023-03-13T11:30:14;4.50;;;2.60;;
16593;SDS011;8410;52.532;13.336;2023-03-13T11:32:51;5.60;;;2.20;;
16593;SDS011;8410;52.532;13.336;2023-03-13T11:35:28;7.13;;;3.57;;
16593;SDS011;8410;52.532;13.336;2023-03-13T11:38:06;3.00;;;2.30;;
16593;SDS011;8410;52.532;13.336;2023-03-13T11:40:35;5.43;;;3.07;;
16593;SDS011;8410;52.532;13.336;2023-03-13T11:43:15;3.17;;;2.40;;
16593;SDS011;8410;52.532;13.336;2023-03-13T11:46:00;3.13;;;1.97;;
16593;SDS011;8410;52.532;13.336;2023-03-13T11:48:50;3.57;;;1.87;;
16593;SDS011;8410;52.532;13.336;2023-03-13T11:51:31;3.40;;;1.77;;
16593;SDS011;8410;52.532;13.336;2023-03-13T11:54:23;3.00;;;1.50;;
16593;SDS011;8410;52.532;13.336;2023-03-13T11:57:04;4.20;;;1.83;;
16593;SDS011;8410;52.532;13.336;2023-03-13T11:59:38;3.40;;;1.60;;
16593;SDS011;8410;52.532;13.336;2023-03-13T12:02:20;3.70;;;1.60;;
16593;SDS011;8410;52.532;13.336;2023-03-13T12:04:54;2.90;;;1.70;;
16593;SDS011;8410;52.532;13.336;2023-03-13T12:07:26;3.60;;;1.70;;
16593;SDS011;8410;52.532;13.336;2023-03-13T12:10:00;4.57;;;2.00;;
16593;SDS011;8410;52.532;13.336;2023-03-13T12:12:34;2.00;;;1.60;;
16593;SDS011;8410;52.532;13.336;2023-03-13T12:15:13;1.70;;;1.40;;
16593;SDS011;8410;52.532;13.336;2023-03-13T12:17:47;1.97;;;1.47;;
16593;SDS011;8410;52.532;13.336;2023-03-13T12:20:22;3.80;;;1.50;;
16593;SDS011;8410;52.532;13.336;2023-03-13T12:22:55;2.27;;;1.60;;
16593;SDS011;8410;52.532;13.336;2023-03-13T12:25:27;3.57;;;1.80;;
16593;SDS011;8410;52.532;13.336;2023-03-13T12:28:02;1.53;;;1.30;;
16593;SDS011;8410;52.532;13.336;2023-03-13T12:30:41;2.03;;;1.27;;
16593;SDS011;8410;52.532;13.336;2023-03-13T12:33:13;3.93;;;1.60;;
16593;SDS011;8410;52.532;13.336;2023-03-13T12:35:52;3.97;;;2.23;;
16593;SDS011;8410;52.532;13.336;2023-03-13T12:38:28;2.77;;;1.50;;
16593;SDS011;8410;52.532;13.336;2023-03-13T12:41:05;2.40;;;1.77;;
16593;SDS011;8410;52.532;13.336;2023-03-13T12:43:44;3.47;;;1.30;;
16593;SDS011;8410;52.532;13.336;2023-03-13T12:46:33;2.40;;;1.50;;
16593;SDS011;8410;52.532;13.336;2023-03-13T12:52:19;2.87;;;1.63;;
16593;SDS011;8410;52.532;13.336;2023-03-13T12:55:16;3.67;;;1.50;;
16593;SDS011;8410;52.532;13.336;2023-03-13T12:58:01;5.53;;;2.00;;
16593;SDS011;8410;52.532;13.336;2023-03-13T13:00:38;3.03;;;1.40;;
16593;SDS011;8410;52.532;13.336;2023-03-13T13:03:09;1.90;;;1.40;;
16593;SDS011;8410;52.532;13.336;2023-03-13T13:05:59;2.80;;;1.27;;
16593;SDS011;8410;52.532;13.336;2023-03-13T13:08:33;1.97;;;1.10;;
16593;SDS011;8410;52.532;13.336;2023-03-13T13:14:52;3.87;;;2.30;;
16593;SDS011;8410;52.532;13.336;2023-03-13T13:17:28;2.77;;;1.40;;
16593;SDS011;8410;52.532;13.336;2023-03-13T13:38:26;2.03;;;1.33;;
16593;SDS011;8410;52.532;13.336;2023-03-13T13:41:02;1.33;;;1.00;;
16593;SDS011;8410;52.532;13.336;2023-03-13T13:43:32;2.73;;;1.57;;
16593;SDS011;8410;52.532;13.336;2023-03-13T13:46:02;2.33;;;1.33;;
16593;SDS011;8410;52.532;13.336;2023-03-13T13:48:35;1.53;;;1.30;;
16593;SDS011;8410;52.532;13.336;2023-03-13T13:54:00;2.10;;;1.30;;
16593;SDS011;8410;52.532;13.336;2023-03-13T13:56:29;1.63;;;1.53;;
16593;SDS011;8410;52.532;13.336;2023-03-13T13:59:02;1.40;;;1.20;;
16593;SDS011;8410;52.532;13.336;2023-03-13T14:01:48;4.33;;;1.77;;
16593;SDS011;8410;52.532;13.336;2023-03-13T14:04:22;2.23;;;1.10;;
16593;SDS011;8410;52.532;13.336;2023-03-13T14:06:53;1.40;;;1.17;;
16593;SDS011;8410;52.532;13.336;2023-03-13T14:09:27;1.90;;;1.20;;
16593;SDS011;8410;52.532;13.336;2023-03-13T14:12:06;2.80;;;1.30;;
16593;SDS011;8410;52.532;13.336;2023-03-13T14:15:04;4.13;;;1.30;;
16593;SDS011;8410;52.532;13.336;2023-03-13T14:17:39;3.73;;;1.60;;
16593;SDS011;8410;52.532;13.336;2023-03-13T14:20:29;2.17;;;1.87;;
16593;SDS011;8410;52.532;13.336;2023-03-13T14:22:59;1.77;;;1.67;;
16593;SDS011;8410;52.532;13.336;2023-03-13T14:25:39;1.93;;;1.20;;
16593;SDS011;8410;52.532;13.336;2023-03-13T14:28:15;3.93;;;2.10;;
16593;SDS011;8410;52.532;13.336;2023-03-13T14:30:45;2.80;;;1.60;;
16593;SDS011;8410;52.532;13.336;2023-03-13T14:33:14;2.33;;;1.47;;
16593;SDS011;8410;52.532;13.336;2023-03-13T14:35:43;1.97;;;1.80;;
16593;SDS011;8410;52.532;13.336;2023-03-13T14:38:15;1.57;;;1.47;;
16593;SDS011;8410;52.532;13.336;2023-03-13T14:40:44;3.20;;;1.70;;
16593;SDS011;8410;52.532;13.336;2023-03-13T14:43:20;1.77;;;1.40;;
16593;SDS011;8410;52.532;13.336;2023-03-13T14:45:51;2.97;;;1.40;;
16593;SDS011;8410;52.532;13.336;2023-03-13T14:48:20;4.30;;;1.83;;
16593;SDS011;8410;52.532;13.336;2023-03-13T14:50:52;5.27;;;1.90;;
16593;SDS011;8410;52.532;13.336;2023-03-13T14:53:40;3.63;;;1.73;;
16593;SDS011;8410;52.532;13.336;2023-03-13T14:56:19;1.67;;;1.53;;
16593;SDS011;8410;52.532;13.336;2023-03-13T14:58:47;1.67;;;1.40;;
16593;SDS011;8410;52.532;13.336;2023-03-13T15:01:23;1.80;;;1.50;;
16593;SDS011;8410;52.532;13.336;2023-03-13T15:03:52;5.07;;;3.03;;
16593;SDS011;8410;52.532;13.336;2023-03-13T15:06:21;2.73;;;1.60;;
16593;SDS011;8410;52.532;13.336;2023-03-13T15:11:53;1.90;;;1.33;;
16593;SDS011;8410;52.532;13.336;2023-03-13T15:14:33;2.33;;;1.73;;
16593;SDS011;8410;52.532;13.336;2023-03-13T15:17:04;2.33;;;1.60;;
16593;SDS011;8410;52.532;13.336;2023-03-13T15:19:39;2.23;;;1.40;;
16593;SDS011;8410;52.532;13.336;2023-03-13T15:22:10;2.07;;;1.40;;
16593;SDS011;8410;52.532;13.336;2023-03-13T15:24:40;5.63;;;1.90;;
16593;SDS011;8410;52.532;13.336;2023-03-13T15:27:15;3.27;;;1.50;;
16593;SDS011;8410;52.532;13.336;2023-03-13T15:29:44;2.93;;;1.40;;
16593;SDS011;8410;52.532;13.336;2023-03-13T15:32:14;2.33;;;1.57;;